Time,TemperatureF,DewpointF,PressureIn,WindDirection,WindDirectionDegrees,WindSpeedMPH,WindSpeedGustMPH,Humidity,HourlyPrecipIn,Conditions,Clouds,dailyrainin,SolarRadiationWatts/m^2,SoftwareType,DateUTC
2013-06-07 00:02:00,81.0,26.0,-100.00,East,95,2.0,6.0,13,0.00,,,0.00,1.000000,,2013-06-07 07:02:00,
2013-06-07 00:32:00,80.0,30.0,-100.00,East,89,3.0,7.0,16,0.00,,,0.00,1.000000,,2013-06-07 07:32:00,
2013-06-07 00:42:00,80.0,30.0,-100.00,East,89,3.0,7.0,16,0.00,,,0.00,1.000000,,2013-06-07 07:42:00,
2013-06-07 00:52:00,80.0,30.0,-100.00,East,89,3.0,7.0,16,0.00,,,0.00,1.000000,,2013-06-07 07:52:00,
2013-06-07 01:02:00,80.0,30.0,-100.00,East,89,3.0,7.0,16,0.00,,,0.00,1.000000,,2013-06-07 08:02:00,
2013-06-07 01:32:00,77.0,27.0,-100.00,ESE,112,3.0,7.0,16,0.00,,,0.00,1.000000,,2013-06-07 08:32:00,
2013-06-07 01:43:00,77.0,27.0,-100.00,ESE,112,3.0,7.0,16,0.00,,,0.00,1.000000,,2013-06-07 08:43:00,
2013-06-07 01:52:00,77.0,27.0,-100.00,ESE,112,3.0,7.0,16,0.00,,,0.00,1.000000,,2013-06-07 08:52:00,
2013-06-07 02:02:00,77.0,27.0,-100.00,ESE,112,3.0,7.0,16,0.00,,,0.00,1.000000,,2013-06-07 09:02:00,
2013-06-07 02:32:00,71.0,25.0,-100.00,NNW,339,4.0,5.0,18,0.00,,,0.00,1.000000,,2013-06-07 09:32:00,
2013-06-07 02:43:00,71.0,25.0,-100.00,NNW,339,4.0,5.0,18,0.00,,,0.00,1.000000,,2013-06-07 09:43:00,
2013-06-07 02:53:00,71.0,25.0,-100.00,NNW,339,4.0,5.0,18,0.00,,,0.00,1.000000,,2013-06-07 09:53:00,
2013-06-07 03:02:00,71.0,25.0,-100.00,NNW,339,4.0,5.0,18,0.00,,,0.00,1.000000,,2013-06-07 10:02:00,
2013-06-07 03:33:00,75.0,29.0,-100.00,North,9,5.0,6.0,18,0.00,,,0.00,1.000000,,2013-06-07 10:33:00,
2013-06-07 03:42:00,75.0,29.0,-100.00,North,9,5.0,6.0,18,0.00,,,0.00,1.000000,,2013-06-07 10:42:00,
2013-06-07 03:53:00,75.0,29.0,-100.00,North,9,5.0,6.0,18,0.00,,,0.00,1.000000,,2013-06-07 10:53:00,
2013-06-07 04:02:00,75.0,29.0,-100.00,North,9,5.0,6.0,18,0.00,,,0.00,1.000000,,2013-06-07 11:02:00,
2013-06-07 04:32:00,78.0,27.0,-100.00,NNE,14,5.0,8.0,15,0.00,,,0.00,1.000000,,2013-06-07 11:32:00,
2013-06-07 04:42:00,78.0,27.0,-100.00,NNE,14,5.0,8.0,15,0.00,,,0.00,1.000000,,2013-06-07 11:42:00,
2013-06-07 04:52:00,78.0,27.0,-100.00,NNE,14,5.0,8.0,15,0.00,,,0.00,1.000000,,2013-06-07 11:52:00,
2013-06-07 05:02:00,78.0,27.0,-100.00,NNE,14,5.0,8.0,15,0.00,,,0.00,1.000000,,2013-06-07 12:02:00,
2013-06-07 05:33:00,72.0,26.0,-100.00,NNW,330,1.0,8.0,18,0.00,,,0.00,1.000000,,2013-06-07 12:33:00,
2013-06-07 05:42:00,72.0,26.0,-100.00,NNW,330,1.0,8.0,18,0.00,,,0.00,1.000000,,2013-06-07 12:42:00,
2013-06-07 05:52:00,72.0,26.0,-100.00,NNW,330,1.0,8.0,18,0.00,,,0.00,1.000000,,2013-06-07 12:52:00,
2013-06-07 06:02:00,72.0,26.0,-100.00,NNW,330,1.0,8.0,18,0.00,,,0.00,1.000000,,2013-06-07 13:02:00,
2013-06-07 06:32:00,70.0,29.0,-100.00,North,8,3.0,5.0,22,0.00,,,0.00,24.000000,,2013-06-07 13:32:00,
2013-06-07 06:43:00,70.0,29.0,-100.00,North,8,3.0,5.0,22,0.00,,,0.00,24.000000,,2013-06-07 13:43:00,
2013-06-07 06:52:00,70.0,29.0,-100.00,North,8,3.0,5.0,22,0.00,,,0.00,24.000000,,2013-06-07 13:52:00,
2013-06-07 07:02:00,70.0,29.0,-100.00,North,8,3.0,5.0,22,0.00,,,0.00,24.000000,,2013-06-07 14:02:00,
2013-06-07 07:33:00,82.0,36.0,-100.00,NW,322,1.0,4.0,19,0.00,,,0.00,195.000000,,2013-06-07 14:33:00,
2013-06-07 07:42:00,82.0,36.0,-100.00,NW,322,1.0,4.0,19,0.00,,,0.00,195.000000,,2013-06-07 14:42:00,
2013-06-07 07:52:00,82.0,36.0,-100.00,NW,322,1.0,4.0,19,0.00,,,0.00,195.000000,,2013-06-07 14:52:00,
2013-06-07 08:02:00,82.0,36.0,-100.00,NW,322,1.0,4.0,19,0.00,,,0.00,195.000000,,2013-06-07 15:02:00,
2013-06-07 08:33:00,89.0,32.0,-100.00,West,273,2.0,4.0,13,0.00,,,-99.99,402.000000,,2013-06-07 15:33:00,
2013-06-07 08:43:00,89.0,32.0,-100.00,West,273,2.0,4.0,13,0.00,,,-99.99,402.000000,,2013-06-07 15:43:00,
2013-06-07 08:53:00,89.0,32.0,-100.00,West,273,2.0,4.0,13,0.00,,,-99.99,402.000000,,2013-06-07 15:53:00,
2013-06-07 09:03:00,89.0,32.0,-100.00,West,273,2.0,4.0,13,0.00,,,-99.99,402.000000,,2013-06-07 16:03:00,
2013-06-07 09:33:00,94.0,31.0,-100.00,South,182,3.0,5.0,11,0.00,,,0.00,606.000000,,2013-06-07 16:33:00,
2013-06-07 09:43:00,94.0,31.0,-100.00,South,182,3.0,5.0,11,0.00,,,0.00,606.000000,,2013-06-07 16:43:00,
2013-06-07 09:53:00,94.0,31.0,-100.00,South,182,3.0,5.0,11,0.00,,,0.00,606.000000,,2013-06-07 16:53:00,
2013-06-07 10:02:00,94.0,31.0,-100.00,South,182,3.0,5.0,11,0.00,,,0.00,606.000000,,2013-06-07 17:02:00,
2013-06-07 10:32:00,98.0,32.0,-100.00,WSW,256,4.0,7.0,10,0.00,,,0.00,784.000000,,2013-06-07 17:32:00,
2013-06-07 10:43:00,98.0,32.0,-100.00,WSW,256,4.0,7.0,10,0.00,,,0.00,784.000000,,2013-06-07 17:43:00,
2013-06-07 10:52:00,98.0,32.0,-100.00,WSW,256,4.0,7.0,10,0.00,,,0.00,784.000000,,2013-06-07 17:52:00,
2013-06-07 11:03:00,98.0,32.0,-100.00,WSW,256,4.0,7.0,10,0.00,,,0.00,784.000000,,2013-06-07 18:03:00,
2013-06-07 11:38:00,101.0,29.0,-100.00,WSW,239,5.0,9.0,8,0.00,,,0.00,917.000000,,2013-06-07 18:38:00,
2013-06-07 11:45:00,101.0,29.0,-100.00,WSW,239,5.0,9.0,8,0.00,,,0.00,917.000000,,2013-06-07 18:45:00,
2013-06-07 11:58:00,101.0,29.0,-100.00,WSW,239,5.0,9.0,8,0.00,,,0.00,917.000000,,2013-06-07 18:58:00,
2013-06-07 12:03:00,101.0,29.0,-100.00,WSW,239,5.0,9.0,8,0.00,,,0.00,917.000000,,2013-06-07 19:03:00,
2013-06-07 12:50:00,104.0,28.0,-100.00,SW,232,4.0,12.0,7,0.00,,,0.00,992.000000,,2013-06-07 19:50:00,
2013-06-07 12:56:00,104.0,28.0,-100.00,SW,232,4.0,12.0,7,0.00,,,0.00,992.000000,,2013-06-07 19:56:00,
2013-06-07 13:02:00,104.0,28.0,-100.00,SW,232,4.0,12.0,7,0.00,,,0.00,992.000000,,2013-06-07 20:02:00,
2013-06-07 13:57:00,106.0,29.0,-100.00,WNW,287,6.0,12.0,7,0.00,,,0.00,1014.000000,,2013-06-07 20:57:00,
2013-06-07 14:42:00,107.0,30.0,-100.00,WSW,255,8.0,17.0,7,0.00,,,0.00,980.000000,,2013-06-07 21:42:00,
2013-06-07 14:47:00,107.0,30.0,-100.00,WSW,255,8.0,17.0,7,0.00,,,0.00,980.000000,,2013-06-07 21:47:00,
2013-06-07 14:58:00,107.0,30.0,-100.00,WSW,255,8.0,17.0,7,0.00,,,0.00,980.000000,,2013-06-07 21:58:00,
2013-06-07 15:39:00,107.0,26.0,-100.00,NW,307,8.0,15.0,6,0.00,,,0.00,882.000000,,2013-06-07 22:39:00,
2013-06-07 15:49:00,107.0,26.0,-100.00,NW,307,8.0,15.0,6,0.00,,,0.00,882.000000,,2013-06-07 22:49:00,
2013-06-07 15:58:00,107.0,26.0,-100.00,NW,307,8.0,15.0,6,0.00,,,0.00,882.000000,,2013-06-07 22:58:00,
2013-06-07 16:04:00,107.0,26.0,-100.00,NW,307,8.0,15.0,6,0.00,,,0.00,882.000000,,2013-06-07 23:04:00,
2013-06-07 16:40:00,107.0,26.0,-100.00,West,281,9.0,15.0,6,0.00,,,0.00,723.000000,,2013-06-07 23:40:00,
2013-06-07 16:53:00,107.0,26.0,-100.00,West,281,9.0,15.0,6,0.00,,,0.00,723.000000,,2013-06-07 23:53:00,
2013-06-07 16:59:00,107.0,26.0,-100.00,West,281,9.0,15.0,6,0.00,,,0.00,723.000000,,2013-06-07 23:59:00,
2013-06-07 17:31:00,106.0,25.0,-100.00,West,272,7.0,16.0,6,0.00,,,0.00,528.000000,,2013-06-08 00:31:00,
2013-06-07 17:36:00,106.0,25.0,-100.00,West,272,7.0,16.0,6,0.00,,,0.00,528.000000,,2013-06-08 00:36:00,
2013-06-07 17:46:00,106.0,25.0,-100.00,West,272,7.0,16.0,6,0.00,,,0.00,528.000000,,2013-06-08 00:46:00,
2013-06-07 17:57:00,106.0,25.0,-100.00,West,272,7.0,16.0,6,0.00,,,0.00,528.000000,,2013-06-08 00:57:00,
2013-06-07 18:03:00,106.0,25.0,-100.00,West,272,7.0,16.0,6,0.00,,,0.00,528.000000,,2013-06-08 01:03:00,
2013-06-07 18:39:00,104.0,24.0,-100.00,West,273,8.0,14.0,6,0.00,,,0.00,316.000000,,2013-06-08 01:39:00,
2013-06-07 18:47:00,104.0,24.0,-100.00,West,273,8.0,14.0,6,0.00,,,0.00,316.000000,,2013-06-08 01:47:00,
2013-06-07 18:58:00,104.0,24.0,-100.00,West,273,8.0,14.0,6,0.00,,,0.00,316.000000,,2013-06-08 01:58:00,
2013-06-07 19:04:00,104.0,24.0,-100.00,West,273,8.0,14.0,6,0.00,,,0.00,316.000000,,2013-06-08 02:04:00,
2013-06-07 19:37:00,99.0,24.0,-100.00,WNW,299,7.0,18.0,7,0.00,,,0.00,98.000000,,2013-06-08 02:37:00,
2013-06-07 19:49:00,99.0,24.0,-100.00,WNW,299,7.0,18.0,7,0.00,,,0.00,98.000000,,2013-06-08 02:49:00,
2013-06-07 19:57:00,99.0,24.0,-100.00,WNW,299,7.0,18.0,7,0.00,,,0.00,98.000000,,2013-06-08 02:57:00,
2013-06-07 20:52:00,96.0,25.0,-100.00,WNW,297,6.0,12.0,8,0.00,,,0.00,5.000000,,2013-06-08 03:52:00,
2013-06-07 20:58:00,96.0,25.0,-100.00,WNW,297,6.0,12.0,8,0.00,,,0.00,5.000000,,2013-06-08 03:58:00,
2013-06-07 21:03:00,96.0,25.0,-100.00,WNW,297,6.0,12.0,8,0.00,,,0.00,5.000000,,2013-06-08 04:03:00,
2013-06-07 21:33:00,94.0,24.0,-100.00,NE,46,3.0,11.0,8,0.00,,,0.00,1.000000,,2013-06-08 04:33:00,
2013-06-07 21:42:00,94.0,24.0,-100.00,NE,46,3.0,11.0,8,0.00,,,0.00,1.000000,,2013-06-08 04:42:00,
2013-06-07 21:53:00,94.0,24.0,-100.00,NE,46,3.0,11.0,8,0.00,,,0.00,1.000000,,2013-06-08 04:53:00,
2013-06-07 22:02:00,94.0,24.0,-100.00,NE,46,3.0,11.0,8,0.00,,,0.00,1.000000,,2013-06-08 05:02:00,
2013-06-07 22:32:00,94.0,27.0,-100.00,North,6,6.0,17.0,9,0.00,,,0.00,1.000000,,2013-06-08 05:32:00,
2013-06-07 22:42:00,94.0,27.0,-100.00,North,6,6.0,17.0,9,0.00,,,0.00,1.000000,,2013-06-08 05:42:00,
2013-06-07 22:52:00,94.0,27.0,-100.00,North,6,6.0,17.0,9,0.00,,,0.00,1.000000,,2013-06-08 05:52:00,
2013-06-07 23:02:00,94.0,27.0,-100.00,North,6,6.0,17.0,9,0.00,,,0.00,1.000000,,2013-06-08 06:02:00,
2013-06-07 23:32:00,88.0,22.0,-100.00,ESE,121,4.0,12.0,9,0.00,,,0.00,1.000000,,2013-06-08 06:32:00,
2013-06-07 23:42:00,88.0,22.0,-100.00,ESE,121,4.0,12.0,9,0.00,,,0.00,1.000000,,2013-06-08 06:42:00,
2013-06-07 23:52:00,88.0,22.0,-100.00,ESE,121,4.0,12.0,9,0.00,,,0.00,1.000000,,2013-06-08 06:52:00,